sensor_id;sensor_type;location;lat;lon;timestamp;temperature;humidity
14122;DHT22;7139;48.114;11.442;2023-05-02T00:02:17;10.60;99.90
14122;DHT22;7139;48.114;11.442;2023-05-02T00:04:44;10.60;99.90
14122;DHT22;7139;48.114;11.442;2023-05-02T00:07:11;10.60;99.90
14122;DHT22;7139;48.114;11.442;2023-05-02T00:09:38;10.70;99.90
14122;DHT22;7139;48.114;11.442;2023-05-02T00:12:05;10.60;99.90
14122;DHT22;7139;48.114;11.442;2023-05-02T00:14:33;10.60;99.90
14122;DHT22;7139;48.114;11.442;2023-05-02T00:17:00;10.60;99.90
14122;DHT22;7139;48.114;11.442;2023-05-02T00:19:26;10.50;99.90
14122;DHT22;7139;48.114;11.442;2023-05-02T00:21:53;10.60;99.90
14122;DHT22;7139;48.114;11.442;2023-05-02T00:24:20;10.60;99.90
14122;DHT22;7139;48.114;11.442;2023-05-02T00:26:46;10.50;99.90
14122;DHT22;7139;48.114;11.442;2023-05-02T00:29:14;10.60;99.90
14122;DHT22;7139;48.114;11.442;2023-05-02T00:31:42;10.60;99.90
14122;DHT22;7139;48.114;11.442;2023-05-02T00:34:09;10.50;99.90
14122;DHT22;7139;48.114;11.442;2023-05-02T00:36:35;10.50;99.90
14122;DHT22;7139;48.114;11.442;2023-05-02T00:39:02;10.50;99.90
14122;DHT22;7139;48.114;11.442;2023-05-02T00:41:29;10.50;99.90
14122;DHT22;7139;48.114;11.442;2023-05-02T00:43:57;10.40;99.90
14122;DHT22;7139;48.114;11.442;2023-05-02T00:46:23;10.40;99.90
14122;DHT22;7139;48.114;11.442;2023-05-02T00:48:52;10.40;99.90
14122;DHT22;7139;48.114;11.442;2023-05-02T00:51:19;10.30;99.90
14122;DHT22;7139;48.114;11.442;2023-05-02T00:53:46;10.30;99.90
14122;DHT22;7139;48.114;11.442;2023-05-02T00:56:12;10.30;99.90
14122;DHT22;7139;48.114;11.442;2023-05-02T00:58:40;10.30;99.90
14122;DHT22;7139;48.114;11.442;2023-05-02T01:01:20;10.30;99.90
14122;DHT22;7139;48.114;11.442;2023-05-02T01:04:03;10.30;99.90
14122;DHT22;7139;48.114;11.442;2023-05-02T01:06:41;10.30;99.90
14122;DHT22;7139;48.114;11.442;2023-05-02T01:09:21;10.30;99.90
14122;DHT22;7139;48.114;11.442;2023-05-02T01:11:56;10.20;99.90
14122;DHT22;7139;48.114;11.442;2023-05-02T01:14:25;10.20;99.90
14122;DHT22;7139;48.114;11.442;2023-05-02T01:16:53;10.20;99.90
14122;DHT22;7139;48.114;11.442;2023-05-02T01:19:30;10.20;99.90
14122;DHT22;7139;48.114;11.442;2023-05-02T01:21:58;10.20;99.90
14122;DHT22;7139;48.114;11.442;2023-05-02T01:24:31;10.20;99.90
14122;DHT22;7139;48.114;11.442;2023-05-02T01:27:06;10.10;99.90
14122;DHT22;7139;48.114;11.442;2023-05-02T01:29:39;10.20;99.90
14122;DHT22;7139;48.114;11.442;2023-05-02T01:32:08;10.10;99.90
14122;DHT22;7139;48.114;11.442;2023-05-02T01:34:37;10.10;99.90
14122;DHT22;7139;48.114;11.442;2023-05-02T01:37:06;10.10;99.90
14122;DHT22;7139;48.114;11.442;2023-05-02T01:39:35;10.00;99.90
14122;DHT22;7139;48.114;11.442;2023-05-02T01:42:04;10.00;99.90
14122;DHT22;7139;48.114;11.442;2023-05-02T01:44:31;10.00;99.90
14122;DHT22;7139;48.114;11.442;2023-05-02T01:47:04;10.00;99.90
14122;DHT22;7139;48.114;11.442;2023-05-02T01:49:32;10.00;99.90
14122;DHT22;7139;48.114;11.442;2023-05-02T01:52:02;9.90;99.90
14122;DHT22;7139;48.114;11.442;2023-05-02T01:54:32;10.00;99.90
14122;DHT22;7139;48.114;11.442;2023-05-02T01:57:02;9.90;99.90
14122;DHT22;7139;48.114;11.442;2023-05-02T01:59:32;9.90;99.90
14122;DHT22;7139;48.114;11.442;2023-05-02T02:02:02;9.90;99.90
14122;DHT22;7139;48.114;11.442;2023-05-02T02:04:31;9.80;99.90
14122;DHT22;7139;48.114;11.442;2023-05-02T02:07:02;9.80;99.90
14122;DHT22;7139;48.114;11.442;2023-05-02T02:09:31;9.90;99.90
14122;DHT22;7139;48.114;11.442;2023-05-02T02:12:01;9.80;99.90
14122;DHT22;7139;48.114;11.442;2023-05-02T02:14:34;9.80;99.90
14122;DHT22;7139;48.114;11.442;2023-05-02T02:17:05;9.80;99.90
14122;DHT22;7139;48.114;11.442;2023-05-02T02:19:38;9.80;99.90
14122;DHT22;7139;48.114;11.442;2023-05-02T02:22:07;9.80;99.90
14122;DHT22;7139;48.114;11.442;2023-05-02T02:24:34;9.80;99.90
14122;DHT22;7139;48.114;11.442;2023-05-02T02:27:02;9.80;99.90
14122;DHT22;7139;48.114;11.442;2023-05-02T02:29:28;9.80;99.90
14122;DHT22;7139;48.114;11.442;2023-05-02T02:31:55;9.80;99.90
14122;DHT22;7139;48.114;11.442;2023-05-02T02:34:23;9.80;99.90
14122;DHT22;7139;48.114;11.442;2023-05-02T02:36:54;9.80;99.90
14122;DHT22;7139;48.114;11.442;2023-05-02T02:39:32;9.80;99.90
14122;DHT22;7139;48.114;11.442;2023-05-02T02:42:09;9.90;99.90
14122;DHT22;7139;48.114;11.442;2023-05-02T02:44:42;9.80;99.90
14122;DHT22;7139;48.114;11.442;2023-05-02T02:47:19;9.80;99.90
14122;DHT22;7139;48.114;11.442;2023-05-02T02:49:50;9.90;99.90
14122;DHT22;7139;48.114;11.442;2023-05-02T02:52:31;9.90;99.90
14122;DHT22;7139;48.114;11.442;2023-05-02T02:55:05;9.80;99.90
14122;DHT22;7139;48.114;11.442;2023-05-02T02:57:38;9.80;99.90
14122;DHT22;7139;48.114;11.442;2023-05-02T03:00:09;9.80;99.90
14122;DHT22;7139;48.114;11.442;2023-05-02T03:02:40;9.80;99.90
14122;DHT22;7139;48.114;11.442;2023-05-02T03:05:09;9.80;99.90
14122;DHT22;7139;48.114;11.442;2023-05-02T03:07:36;9.80;99.90
14122;DHT22;7139;48.114;11.442;2023-05-02T03:10:04;9.80;99.90
14122;DHT22;7139;48.114;11.442;2023-05-02T03:12:31;9.80;99.90
14122;DHT22;7139;48.114;11.442;2023-05-02T03:15:05;9.80;99.90
14122;DHT22;7139;48.114;11.442;2023-05-02T03:17:33;9.80;99.90
14122;DHT22;7139;48.114;11.442;2023-05-02T03:20:00;9.70;99.90
14122;DHT22;7139;48.114;11.442;2023-05-02T03:22:29;9.70;99.90
14122;DHT22;7139;48.114;11.442;2023-05-02T03:24:55;9.70;99.90
14122;DHT22;7139;48.114;11.442;2023-05-02T03:27:22;9.70;99.90
14122;DHT22;7139;48.114;11.442;2023-05-02T03:29:49;9.70;99.90
14122;DHT22;7139;48.114;11.442;2023-05-02T03:32:15;9.70;99.90
14122;DHT22;7139;48.114;11.442;2023-05-02T03:34:42;9.60;99.90
14122;DHT22;7139;48.114;11.442;2023-05-02T03:37:09;9.60;99.90
14122;DHT22;7139;48.114;11.442;2023-05-02T03:39:37;9.60;99.90
14122;DHT22;7139;48.114;11.442;2023-05-02T03:42:04;9.50;99.90
14122;DHT22;7139;48.114;11.442;2023-05-02T03:44:31;9.60;99.90
14122;DHT22;7139;48.114;11.442;2023-05-02T03:46:57;9.50;99.90
14122;DHT22;7139;48.114;11.442;2023-05-02T03:49:24;9.50;99.90
14122;DHT22;7139;48.114;11.442;2023-05-02T03:51:51;9.50;99.90
14122;DHT22;7139;48.114;11.442;2023-05-02T03:54:18;9.50;99.90
14122;DHT22;7139;48.114;11.442;2023-05-02T03:56:46;9.40;99.90
14122;DHT22;7139;48.114;11.442;2023-05-02T03:59:13;9.50;99.90
14122;DHT22;7139;48.114;11.442;2023-05-02T04:01:40;9.50;99.90
14122;DHT22;7139;48.114;11.442;2023-05-02T04:04:07;9.40;99.90
14122;DHT22;7139;48.114;11.442;2023-05-02T04:06:34;9.40;99.90
14122;DHT22;7139;48.114;11.442;2023-05-02T04:09:01;9.40;99.90
14122;DHT22;7139;48.114;11.442;2023-05-02T04:11:27;9.40;99.90
14122;DHT22;7139;48.114;11.442;2023-05-02T04:13:55;9.40;99.90
14122;DHT22;7139;48.114;11.442;2023-05-02T04:16:22;9.40;99.90
14122;DHT22;7139;48.114;11.442;2023-05-02T04:18:49;9.40;99.90
14122;DHT22;7139;48.114;11.442;2023-05-02T04:21:15;9.40;99.90
14122;DHT22;7139;48.114;11.442;2023-05-02T04:23:42;9.40;99.90
14122;DHT22;7139;48.114;11.442;2023-05-02T04:26:09;9.40;99.90
14122;DHT22;7139;48.114;11.442;2023-05-02T04:28:36;9.40;99.90
14122;DHT22;7139;48.114;11.442;2023-05-02T04:31:04;9.40;99.90
14122;DHT22;7139;48.114;11.442;2023-05-02T04:33:30;9.50;99.90
14122;DHT22;7139;48.114;11.442;2023-05-02T04:35:57;9.50;99.90
14122;DHT22;7139;48.114;11.442;2023-05-02T04:38:24;9.50;99.90
14122;DHT22;7139;48.114;11.442;2023-05-02T04:40:51;9.50;99.90
14122;DHT22;7139;48.114;11.442;2023-05-02T04:43:18;9.50;99.90
14122;DHT22;7139;48.114;11.442;2023-05-02T04:45:46;9.50;99.90
14122;DHT22;7139;48.114;11.442;2023-05-02T04:48:14;9.50;99.90
14122;DHT22;7139;48.114;11.442;2023-05-02T04:50:40;9.60;99.90
14122;DHT22;7139;48.114;11.442;2023-05-02T04:53:07;9.60;99.90
14122;DHT22;7139;48.114;11.442;2023-05-02T04:55:34;9.60;99.90
14122;DHT22;7139;48.114;11.442;2023-05-02T04:58:00;9.60;99.90
14122;DHT22;7139;48.114;11.442;2023-05-02T05:00:28;9.60;99.90
14122;DHT22;7139;48.114;11.442;2023-05-02T05:02:54;9.60;99.90
14122;DHT22;7139;48.114;11.442;2023-05-02T05:05:22;9.60;99.90
14122;DHT22;7139;48.114;11.442;2023-05-02T05:07:49;9.70;99.90
14122;DHT22;7139;48.114;11.442;2023-05-02T05:10:16;9.70;99.90
14122;DHT22;7139;48.114;11.442;2023-05-02T05:12:43;9.70;99.90
14122;DHT22;7139;48.114;11.442;2023-05-02T05:15:10;9.70;99.90
14122;DHT22;7139;48.114;11.442;2023-05-02T05:17:37;9.70;99.90
14122;DHT22;7139;48.114;11.442;2023-05-02T05:20:05;9.70;99.90
14122;DHT22;7139;48.114;11.442;2023-05-02T05:22:38;9.80;99.90
14122;DHT22;7139;48.114;11.442;2023-05-02T05:25:06;9.80;99.90
14122;DHT22;7139;48.114;11.442;2023-05-02T05:27:33;9.90;99.90
14122;DHT22;7139;48.114;11.442;2023-05-02T05:30:00;9.90;99.90
14122;DHT22;7139;48.114;11.442;2023-05-02T05:32:27;9.90;99.90
14122;DHT22;7139;48.114;11.442;2023-05-02T05:34:54;10.00;99.90
14122;DHT22;7139;48.114;11.442;2023-05-02T05:37:21;10.00;99.90
14122;DHT22;7139;48.114;11.442;2023-05-02T05:39:49;10.00;99.90
14122;DHT22;7139;48.114;11.442;2023-05-02T05:42:16;10.10;99.90
14122;DHT22;7139;48.114;11.442;2023-05-02T05:44:43;10.10;99.90
14122;DHT22;7139;48.114;11.442;2023-05-02T05:47:09;10.20;99.90
14122;DHT22;7139;48.114;11.442;2023-05-02T05:49:37;10.20;99.90
14122;DHT22;7139;48.114;11.442;2023-05-02T05:52:03;10.30;99.90
14122;DHT22;7139;48.114;11.442;2023-05-02T05:54:30;10.30;99.90
14122;DHT22;7139;48.114;11.442;2023-05-02T05:56:58;10.40;99.90
14122;DHT22;7139;48.114;11.442;2023-05-02T05:59:27;10.40;99.90
14122;DHT22;7139;48.114;11.442;2023-05-02T06:01:54;10.40;99.90
14122;DHT22;7139;48.114;11.442;2023-05-02T06:04:21;10.40;99.90
14122;DHT22;7139;48.114;11.442;2023-05-02T06:06:48;10.50;99.90
14122;DHT22;7139;48.114;11.442;2023-05-02T06:09:17;10.50;99.90
14122;DHT22;7139;48.114;11.442;2023-05-02T06:11:44;10.50;99.90
14122;DHT22;7139;48.114;11.442;2023-05-02T06:14:12;10.60;99.90
14122;DHT22;7139;48.114;11.442;2023-05-02T06:16:39;10.60;99.90
14122;DHT22;7139;48.114;11.442;2023-05-02T06:19:06;10.70;99.90
14122;DHT22;7139;48.114;11.442;2023-05-02T06:21:35;10.70;99.90
14122;DHT22;7139;48.114;11.442;2023-05-02T06:24:02;10.70;99.90
14122;DHT22;7139;48.114;11.442;2023-05-02T06:26:29;10.70;99.90
14122;DHT22;7139;48.114;11.442;2023-05-02T06:28:55;10.80;99.90
14122;DHT22;7139;48.114;11.442;2023-05-02T06:31:23;10.80;99.90
14122;DHT22;7139;48.114;11.442;2023-05-02T06:33:50;10.80;99.90
14122;DHT22;7139;48.114;11.442;2023-05-02T06:36:17;11.00;99.90
14122;DHT22;7139;48.114;11.442;2023-05-02T06:38:44;11.00;99.90
14122;DHT22;7139;48.114;11.442;2023-05-02T06:41:12;11.00;99.90
14122;DHT22;7139;48.114;11.442;2023-05-02T06:43:39;11.10;99.90
14122;DHT22;7139;48.114;11.442;2023-05-02T06:46:06;11.20;99.90
14122;DHT22;7139;48.114;11.442;2023-05-02T06:48:35;11.30;99.90
14122;DHT22;7139;48.114;11.442;2023-05-02T06:51:02;11.30;99.90
14122;DHT22;7139;48.114;11.442;2023-05-02T06:53:29;11.40;99.90
14122;DHT22;7139;48.114;11.442;2023-05-02T06:55:56;11.40;99.90
14122;DHT22;7139;48.114;11.442;2023-05-02T06:58:23;11.50;99.90
14122;DHT22;7139;48.114;11.442;2023-05-02T07:00:49;11.50;99.90
14122;DHT22;7139;48.114;11.442;2023-05-02T07:03:16;11.50;99.90
14122;DHT22;7139;48.114;11.442;2023-05-02T07:05:44;11.50;99.90
14122;DHT22;7139;48.114;11.442;2023-05-02T07:08:11;11.60;99.90
14122;DHT22;7139;48.114;11.442;2023-05-02T07:10:38;11.60;99.90
14122;DHT22;7139;48.114;11.442;2023-05-02T07:13:04;11.70;99.90
14122;DHT22;7139;48.114;11.442;2023-05-02T07:15:31;11.70;99.90
14122;DHT22;7139;48.114;11.442;2023-05-02T07:17:58;11.70;99.90
14122;DHT22;7139;48.114;11.442;2023-05-02T07:20:25;11.80;99.90
14122;DHT22;7139;48.114;11.442;2023-05-02T07:22:53;11.80;99.90
14122;DHT22;7139;48.114;11.442;2023-05-02T07:25:20;11.80;99.90
14122;DHT22;7139;48.114;11.442;2023-05-02T07:27:47;11.80;99.90
14122;DHT22;7139;48.114;11.442;2023-05-02T07:30:14;11.80;99.90
14122;DHT22;7139;48.114;11.442;2023-05-02T07:32:40;11.80;99.90
14122;DHT22;7139;48.114;11.442;2023-05-02T07:35:08;11.90;99.90
14122;DHT22;7139;48.114;11.442;2023-05-02T07:37:34;11.90;99.90
14122;DHT22;7139;48.114;11.442;2023-05-02T07:40:04;12.00;99.90
14122;DHT22;7139;48.114;11.442;2023-05-02T07:42:32;12.00;99.90
14122;DHT22;7139;48.114;11.442;2023-05-02T07:44:59;12.10;99.90
14122;DHT22;7139;48.114;11.442;2023-05-02T07:47:26;12.10;99.90
14122;DHT22;7139;48.114;11.442;2023-05-02T07:49:54;12.20;99.90
14122;DHT22;7139;48.114;11.442;2023-05-02T07:52:21;12.20;99.90
14122;DHT22;7139;48.114;11.442;2023-05-02T07:54:48;12.20;99.90
14122;DHT22;7139;48.114;11.442;2023-05-02T07:57:16;12.20;99.90
14122;DHT22;7139;48.114;11.442;2023-05-02T07:59:43;12.30;99.90
14122;DHT22;7139;48.114;11.442;2023-05-02T08:02:10;12.30;99.90
14122;DHT22;7139;48.114;11.442;2023-05-02T08:04:38;12.40;99.90
14122;DHT22;7139;48.114;11.442;2023-05-02T08:07:05;12.30;99.90
14122;DHT22;7139;48.114;11.442;2023-05-02T08:09:32;12.40;99.90
14122;DHT22;7139;48.114;11.442;2023-05-02T08:11:58;12.60;99.90
14122;DHT22;7139;48.114;11.442;2023-05-02T08:14:28;12.70;99.90
14122;DHT22;7139;48.114;11.442;2023-05-02T08:16:56;12.50;99.90
14122;DHT22;7139;48.114;11.442;2023-05-02T08:19:22;12.60;99.90
14122;DHT22;7139;48.114;11.442;2023-05-02T08:21:49;12.70;99.90
14122;DHT22;7139;48.114;11.442;2023-05-02T08:24:16;12.80;99.90
14122;DHT22;7139;48.114;11.442;2023-05-02T08:26:43;12.90;99.90
14122;DHT22;7139;48.114;11.442;2023-05-02T08:29:09;12.90;99.90
14122;DHT22;7139;48.114;11.442;2023-05-02T08:31:38;12.90;99.90
14122;DHT22;7139;48.114;11.442;2023-05-02T08:34:05;13.10;99.90
14122;DHT22;7139;48.114;11.442;2023-05-02T08:36:32;13.20;99.90
14122;DHT22;7139;48.114;11.442;2023-05-02T08:38:58;13.30;99.90
14122;DHT22;7139;48.114;11.442;2023-05-02T08:41:28;13.30;99.90
14122;DHT22;7139;48.114;11.442;2023-05-02T08:43:55;13.30;99.90
14122;DHT22;7139;48.114;11.442;2023-05-02T08:46:22;13.30;99.90
14122;DHT22;7139;48.114;11.442;2023-05-02T08:48:52;13.30;99.90
14122;DHT22;7139;48.114;11.442;2023-05-02T08:51:22;13.30;99.90
14122;DHT22;7139;48.114;11.442;2023-05-02T08:53:51;13.30;99.90
14122;DHT22;7139;48.114;11.442;2023-05-02T08:56:18;13.30;99.90
14122;DHT22;7139;48.114;11.442;2023-05-02T08:58:45;13.30;99.90
14122;DHT22;7139;48.114;11.442;2023-05-02T09:01:14;13.40;99.90
14122;DHT22;7139;48.114;11.442;2023-05-02T09:03:42;13.50;99.90
14122;DHT22;7139;48.114;11.442;2023-05-02T09:06:12;13.50;99.90
14122;DHT22;7139;48.114;11.442;2023-05-02T09:08:40;13.60;99.90
14122;DHT22;7139;48.114;11.442;2023-05-02T09:11:08;13.70;99.90
14122;DHT22;7139;48.114;11.442;2023-05-02T09:13:36;13.80;99.90
14122;DHT22;7139;48.114;11.442;2023-05-02T09:16:05;13.90;99.90
14122;DHT22;7139;48.114;11.442;2023-05-02T09:18:33;13.90;99.90
14122;DHT22;7139;48.114;11.442;2023-05-02T09:21:02;13.90;99.90
14122;DHT22;7139;48.114;11.442;2023-05-02T09:23:50;13.80;99.90
14122;DHT22;7139;48.114;11.442;2023-05-02T09:26:19;13.90;99.90
14122;DHT22;7139;48.114;11.442;2023-05-02T09:28:47;13.90;99.90
14122;DHT22;7139;48.114;11.442;2023-05-02T09:31:15;14.00;99.90
14122;DHT22;7139;48.114;11.442;2023-05-02T09:33:43;14.10;99.90
14122;DHT22;7139;48.114;11.442;2023-05-02T09:36:11;14.20;99.90
14122;DHT22;7139;48.114;11.442;2023-05-02T09:38:39;14.10;99.90
14122;DHT22;7139;48.114;11.442;2023-05-02T09:41:08;14.20;99.90
14122;DHT22;7139;48.114;11.442;2023-05-02T09:43:35;14.20;99.90
14122;DHT22;7139;48.114;11.442;2023-05-02T09:46:03;14.20;99.90
14122;DHT22;7139;48.114;11.442;2023-05-02T09:48:31;14.20;99.90
14122;DHT22;7139;48.114;11.442;2023-05-02T09:50:58;14.20;99.90
14122;DHT22;7139;48.114;11.442;2023-05-02T09:53:26;14.10;99.90
14122;DHT22;7139;48.114;11.442;2023-05-02T09:56:03;14.20;99.90
14122;DHT22;7139;48.114;11.442;2023-05-02T09:58:31;14.20;99.90
14122;DHT22;7139;48.114;11.442;2023-05-02T10:00:58;14.20;99.90
14122;DHT22;7139;48.114;11.442;2023-05-02T10:03:26;14.30;99.90
14122;DHT22;7139;48.114;11.442;2023-05-02T10:05:54;14.40;99.90
14122;DHT22;7139;48.114;11.442;2023-05-02T10:08:25;14.50;99.90
14122;DHT22;7139;48.114;11.442;2023-05-02T10:10:54;14.50;99.90
14122;DHT22;7139;48.114;11.442;2023-05-02T10:13:23;14.60;99.90
14122;DHT22;7139;48.114;11.442;2023-05-02T10:15:58;14.60;99.90
14122;DHT22;7139;48.114;11.442;2023-05-02T10:18:27;14.70;99.90
14122;DHT22;7139;48.114;11.442;2023-05-02T10:20:58;14.80;99.90
14122;DHT22;7139;48.114;11.442;2023-05-02T10:23:27;14.90;99.90
14122;DHT22;7139;48.114;11.442;2023-05-02T10:25:54;14.90;99.90
14122;DHT22;7139;48.114;11.442;2023-05-02T10:28:22;15.00;99.90
14122;DHT22;7139;48.114;11.442;2023-05-02T10:30:49;15.10;99.90
14122;DHT22;7139;48.114;11.442;2023-05-02T10:33:19;15.20;99.90
14122;DHT22;7139;48.114;11.442;2023-05-02T10:35:46;15.10;99.90
14122;DHT22;7139;48.114;11.442;2023-05-02T10:38:15;15.10;99.90
14122;DHT22;7139;48.114;11.442;2023-05-02T10:40:48;15.20;99.90
14122;DHT22;7139;48.114;11.442;2023-05-02T10:43:21;15.30;99.90
14122;DHT22;7139;48.114;11.442;2023-05-02T10:45:48;15.30;99.90
14122;DHT22;7139;48.114;11.442;2023-05-02T10:48:19;15.30;99.90
14122;DHT22;7139;48.114;11.442;2023-05-02T10:50:47;15.10;99.90
14122;DHT22;7139;48.114;11.442;2023-05-02T10:53:26;14.70;99.90
14122;DHT22;7139;48.114;11.442;2023-05-02T10:56:16;14.30;99.90
14122;DHT22;7139;48.114;11.442;2023-05-02T10:58:46;13.70;99.90
14122;DHT22;7139;48.114;11.442;2023-05-02T11:01:34;13.30;99.90
14122;DHT22;7139;48.114;11.442;2023-05-02T11:04:09;13.00;99.90
14122;DHT22;7139;48.114;11.442;2023-05-02T11:09:31;12.80;99.90
14122;DHT22;7139;48.114;11.442;2023-05-02T11:11:59;12.70;99.90
14122;DHT22;7139;48.114;11.442;2023-05-02T11:14:46;12.60;99.90
14122;DHT22;7139;48.114;11.442;2023-05-02T11:17:14;12.60;99.90
14122;DHT22;7139;48.114;11.442;2023-05-02T11:22:54;12.50;99.90
14122;DHT22;7139;48.114;11.442;2023-05-02T11:25:32;12.50;99.90
14122;DHT22;7139;48.114;11.442;2023-05-02T11:27:59;12.60;99.90
14122;DHT22;7139;48.114;11.442;2023-05-02T11:30:42;12.60;99.90
14122;DHT22;7139;48.114;11.442;2023-05-02T11:33:14;12.60;99.90
14122;DHT22;7139;48.114;11.442;2023-05-02T11:35:42;12.60;99.90
14122;DHT22;7139;48.114;11.442;2023-05-02T11:38:13;12.60;99.90
14122;DHT22;7139;48.114;11.442;2023-05-02T11:40:40;12.60;99.90
14122;DHT22;7139;48.114;11.442;2023-05-02T11:43:14;12.60;99.90
14122;DHT22;7139;48.114;11.442;2023-05-02T11:45:41;12.70;99.90
14122;DHT22;7139;48.114;11.442;2023-05-02T11:48:10;12.70;99.90
14122;DHT22;7139;48.114;11.442;2023-05-02T11:50:41;12.70;99.90
14122;DHT22;7139;48.114;11.442;2023-05-02T11:53:13;12.70;99.90
14122;DHT22;7139;48.114;11.442;2023-05-02T11:55:45;12.70;99.90
14122;DHT22;7139;48.114;11.442;2023-05-02T11:58:13;12.70;99.90
14122;DHT22;7139;48.114;11.442;2023-05-02T12:00:41;12.70;99.90
14122;DHT22;7139;48.114;11.442;2023-05-02T12:03:19;12.70;99.90
14122;DHT22;7139;48.114;11.442;2023-05-02T12:05:46;12.80;99.90
14122;DHT22;7139;48.114;11.442;2023-05-02T12:08:22;12.80;99.90
14122;DHT22;7139;48.114;11.442;2023-05-02T12:10:50;12.90;99.90
14122;DHT22;7139;48.114;11.442;2023-05-02T12:13:19;12.90;99.90
14122;DHT22;7139;48.114;11.442;2023-05-02T12:15:47;12.90;99.90
14122;DHT22;7139;48.114;11.442;2023-05-02T12:18:14;12.90;99.90
14122;DHT22;7139;48.114;11.442;2023-05-02T12:20:41;13.00;99.90
14122;DHT22;7139;48.114;11.442;2023-05-02T12:23:09;13.00;99.90
14122;DHT22;7139;48.114;11.442;2023-05-02T12:25:38;13.10;99.90
14122;DHT22;7139;48.114;11.442;2023-05-02T12:28:05;13.10;99.90
14122;DHT22;7139;48.114;11.442;2023-05-02T12:30:33;13.10;99.90
14122;DHT22;7139;48.114;11.442;2023-05-02T12:33:01;13.10;99.90
14122;DHT22;7139;48.114;11.442;2023-05-02T12:35:28;13.10;99.90
14122;DHT22;7139;48.114;11.442;2023-05-02T12:38:10;13.20;99.90
14122;DHT22;7139;48.114;11.442;2023-05-02T12:40:46;13.20;99.90
14122;DHT22;7139;48.114;11.442;2023-05-02T12:43:13;13.30;99.90
14122;DHT22;7139;48.114;11.442;2023-05-02T12:45:40;13.40;99.90
14122;DHT22;7139;48.114;11.442;2023-05-02T12:48:18;13.50;99.90
14122;DHT22;7139;48.114;11.442;2023-05-02T12:50:45;13.60;99.90
14122;DHT22;7139;48.114;11.442;2023-05-02T12:53:12;13.60;99.90
14122;DHT22;7139;48.114;11.442;2023-05-02T12:55:41;13.70;99.90
14122;DHT22;7139;48.114;11.442;2023-05-02T12:58:09;13.80;99.90
14122;DHT22;7139;48.114;11.442;2023-05-02T13:00:38;13.80;99.90
14122;DHT22;7139;48.114;11.442;2023-05-02T13:03:06;13.80;99.90
14122;DHT22;7139;48.114;11.442;2023-05-02T13:05:34;13.80;99.90
14122;DHT22;7139;48.114;11.442;2023-05-02T13:08:01;13.70;99.90
14122;DHT22;7139;48.114;11.442;2023-05-02T13:10:28;13.80;99.90
14122;DHT22;7139;48.114;11.442;2023-05-02T13:12:56;13.80;99.90
14122;DHT22;7139;48.114;11.442;2023-05-02T13:15:23;13.90;99.90
14122;DHT22;7139;48.114;11.442;2023-05-02T13:17:50;13.80;99.90
14122;DHT22;7139;48.114;11.442;2023-05-02T13:20:17;13.90;99.90
14122;DHT22;7139;48.114;11.442;2023-05-02T13:22:44;13.80;99.90
14122;DHT22;7139;48.114;11.442;2023-05-02T13:25:11;13.80;99.90
14122;DHT22;7139;48.114;11.442;2023-05-02T13:27:37;13.80;99.90
14122;DHT22;7139;48.114;11.442;2023-05-02T13:30:07;13.90;99.90
14122;DHT22;7139;48.114;11.442;2023-05-02T13:32:36;13.90;99.90
14122;DHT22;7139;48.114;11.442;2023-05-02T13:35:04;14.00;99.90
14122;DHT22;7139;48.114;11.442;2023-05-02T13:37:31;14.10;99.90
14122;DHT22;7139;48.114;11.442;2023-05-02T13:39:57;14.10;99.90
14122;DHT22;7139;48.114;11.442;2023-05-02T13:42:24;14.20;99.90
14122;DHT22;7139;48.114;11.442;2023-05-02T13:44:51;14.10;99.90
14122;DHT22;7139;48.114;11.442;2023-05-02T13:47:19;14.20;99.90
14122;DHT22;7139;48.114;11.442;2023-05-02T13:49:46;14.20;99.90
14122;DHT22;7139;48.114;11.442;2023-05-02T13:52:12;14.30;99.90
14122;DHT22;7139;48.114;11.442;2023-05-02T13:54:39;14.30;99.90
14122;DHT22;7139;48.114;11.442;2023-05-02T13:57:06;14.40;99.90
14122;DHT22;7139;48.114;11.442;2023-05-02T13:59:32;14.40;99.90
14122;DHT22;7139;48.114;11.442;2023-05-02T14:01:59;14.50;99.90
14122;DHT22;7139;48.114;11.442;2023-05-02T14:04:28;14.40;99.90
14122;DHT22;7139;48.114;11.442;2023-05-02T14:06:55;14.40;99.90
14122;DHT22;7139;48.114;11.442;2023-05-02T14:09:22;14.40;99.90
14122;DHT22;7139;48.114;11.442;2023-05-02T14:11:48;14.50;99.90
14122;DHT22;7139;48.114;11.442;2023-05-02T14:14:15;14.50;99.90
14122;DHT22;7139;48.114;11.442;2023-05-02T14:16:42;14.50;99.90
14122;DHT22;7139;48.114;11.442;2023-05-02T14:19:09;14.50;99.90
14122;DHT22;7139;48.114;11.442;2023-05-02T14:21:37;14.50;99.90
14122;DHT22;7139;48.114;11.442;2023-05-02T14:24:04;14.50;99.90
14122;DHT22;7139;48.114;11.442;2023-05-02T14:26:31;14.50;99.90
14122;DHT22;7139;48.114;11.442;2023-05-02T14:28:58;14.40;99.90
14122;DHT22;7139;48.114;11.442;2023-05-02T14:31:25;14.40;99.90
14122;DHT22;7139;48.114;11.442;2023-05-02T14:33:52;14.40;99.90
14122;DHT22;7139;48.114;11.442;2023-05-02T14:36:19;14.40;99.90
14122;DHT22;7139;48.114;11.442;2023-05-02T14:38:47;14.30;99.90
14122;DHT22;7139;48.114;11.442;2023-05-02T14:41:14;14.20;99.90
14122;DHT22;7139;48.114;11.442;2023-05-02T14:43:40;14.20;99.90
14122;DHT22;7139;48.114;11.442;2023-05-02T14:46:07;14.20;99.90
14122;DHT22;7139;48.114;11.442;2023-05-02T14:48:34;14.20;99.90
14122;DHT22;7139;48.114;11.442;2023-05-02T14:51:02;14.20;99.90
14122;DHT22;7139;48.114;11.442;2023-05-02T14:53:29;14.20;99.90
14122;DHT22;7139;48.114;11.442;2023-05-02T14:55:57;14.30;99.90
14122;DHT22;7139;48.114;11.442;2023-05-02T14:58:24;14.20;99.90
14122;DHT22;7139;48.114;11.442;2023-05-02T15:00:51;14.20;99.90
14122;DHT22;7139;48.114;11.442;2023-05-02T15:03:18;14.10;99.90
14122;DHT22;7139;48.114;11.442;2023-05-02T15:05:45;14.00;99.90
14122;DHT22;7139;48.114;11.442;2023-05-02T15:08:12;13.90;99.90
14122;DHT22;7139;48.114;11.442;2023-05-02T15:10:38;13.90;99.90
14122;DHT22;7139;48.114;11.442;2023-05-02T15:13:06;13.80;99.90
14122;DHT22;7139;48.114;11.442;2023-05-02T15:15:33;13.70;99.90
14122;DHT22;7139;48.114;11.442;2023-05-02T15:18:01;13.60;99.90
14122;DHT22;7139;48.114;11.442;2023-05-02T15:20:28;13.60;99.90
14122;DHT22;7139;48.114;11.442;2023-05-02T15:22:55;13.60;99.90
14122;DHT22;7139;48.114;11.442;2023-05-02T15:25:23;13.50;99.90
14122;DHT22;7139;48.114;11.442;2023-05-02T15:27:50;13.50;99.90
14122;DHT22;7139;48.114;11.442;2023-05-02T15:30:18;13.50;99.90
14122;DHT22;7139;48.114;11.442;2023-05-02T15:32:45;13.60;99.90
14122;DHT22;7139;48.114;11.442;2023-05-02T15:35:11;13.60;99.90
14122;DHT22;7139;48.114;11.442;2023-05-02T15:37:38;13.60;99.90
14122;DHT22;7139;48.114;11.442;2023-05-02T15:40:06;13.60;99.90
14122;DHT22;7139;48.114;11.442;2023-05-02T15:42:34;13.60;99.90
14122;DHT22;7139;48.114;11.442;2023-05-02T15:45:01;13.60;99.90
14122;DHT22;7139;48.114;11.442;2023-05-02T15:47:29;13.60;99.90
14122;DHT22;7139;48.114;11.442;2023-05-02T15:49:56;13.50;99.90